Time;durP1;ratioP1;P1;durP2;ratioP2;P2;SDS_P1;SDS_P2;PMS_P1;PMS_P2;Temp;Humidity;BMP_temperature;BMP_pressure;BME280_temperature;BME280_humidity;BME280_pressure;Samples;Min_cycle;Max_cycle;Signal;HPM_P1;HPM_P2
2023/11/16 00:00:33;;;;;;;27.20;2.90;;;8.70;99.90;;;;;;5032424;28;20169;-80
2023/11/16 00:02:59;;;;;;;31.38;3.13;;;8.70;99.90;;;;;;5050313;28;20169;-80
2023/11/16 00:05:25;;;;;;;33.03;2.83;;;8.70;99.90;;;;;;5031663;28;20197;-80
2023/11/16 00:07:53;;;;;;;32.73;3.07;;;8.70;99.90;;;;;;5049689;28;20208;-80
2023/11/16 00:10:19;;;;;;;29.40;2.72;;;8.70;99.90;;;;;;5049553;28;20169;-80
2023/11/16 00:12:45;;;;;;;29.07;2.43;;;8.80;99.90;;;;;;5032725;28;20631;-80
2023/11/16 00:15:11;;;;;;;25.77;2.37;;;8.70;99.90;;;;;;5050368;28;20419;-80
2023/11/16 00:17:37;;;;;;;25.95;2.50;;;8.70;99.90;;;;;;5031656;28;20429;-80
2023/11/16 00:20:05;;;;;;;26.33;2.33;;;8.70;99.90;;;;;;5050190;28;20179;-80
2023/11/16 00:22:31;;;;;;;24.58;2.10;;;8.60;99.90;;;;;;5032016;28;20420;-80
2023/11/16 00:24:56;;;;;;;24.67;2.70;;;8.60;99.90;;;;;;5049708;28;20181;-80
2023/11/16 00:27:25;;;;;;;32.73;3.37;;;8.60;99.90;;;;;;5049984;28;20253;-80
2023/11/16 00:29:54;;;;;;;26.23;2.60;;;8.60;99.90;;;;;;5049662;28;20184;-80
2023/11/16 00:32:20;;;;;;;28.30;2.63;;;8.50;99.90;;;;;;5050435;28;20640;-80
2023/11/16 00:34:46;;;;;;;29.10;2.87;;;8.50;99.90;;;;;;5049629;28;20196;-80
2023/11/16 00:37:12;;;;;;;26.80;2.53;;;8.40;99.90;;;;;;5049860;28;20166;-80
2023/11/16 00:39:40;;;;;;;31.20;3.20;;;8.40;99.90;;;;;;5050090;28;20173;-80
2023/11/16 00:42:06;;;;;;;26.70;2.00;;;8.30;99.90;;;;;;5049726;28;20185;-80
2023/11/16 00:44:32;;;;;;;26.42;2.60;;;8.20;99.90;;;;;;5049641;28;20593;-80
2023/11/16 00:46:58;;;;;;;25.10;1.90;;;8.30;99.90;;;;;;5050076;28;20208;-80
2023/11/16 00:49:24;;;;;;;25.50;2.57;;;8.20;99.90;;;;;;5049997;28;20164;-80
2023/11/16 00:51:52;;;;;;;26.57;2.60;;;8.20;99.90;;;;;;5342524;22;20603;-80
2023/11/16 00:54:19;;;;;;;24.65;2.10;;;8.20;99.90;;;;;;5113330;22;20494;-80
2023/11/16 00:56:49;;;;;;;24.92;2.45;;;8.10;99.90;;;;;;5049479;28;20162;-80
2023/11/16 00:59:15;;;;;;;27.40;2.55;;;8.10;99.90;;;;;;5050757;28;20170;-80
2023/11/16 01:01:40;;;;;;;25.60;2.40;;;8.20;99.90;;;;;;5054066;28;20193;-80
2023/11/16 01:04:11;;;;;;;29.07;3.47;;;8.10;99.90;;;;;;5053154;28;20245;-80
2023/11/16 01:06:39;;;;;;;30.55;2.08;;;8.20;99.90;;;;;;5052861;28;20447;-80
2023/11/16 01:09:08;;;;;;;36.00;4.53;;;8.30;99.90;;;;;;5034779;28;20176;-80
2023/11/16 01:11:36;;;;;;;32.97;4.05;;;8.30;99.90;;;;;;5051585;28;20686;-80
2023/11/16 01:14:02;;;;;;;27.10;2.45;;;8.30;99.90;;;;;;5052120;28;20198;-80
2023/11/16 01:16:46;;;;;;;26.35;2.50;;;8.30;99.90;;;;;;5051930;28;20172;-80
2023/11/16 01:19:15;;;;;;;31.33;3.17;;;8.40;99.90;;;;;;5053164;28;20178;-80
2023/11/16 01:21:44;;;;;;;38.65;2.85;;;8.40;99.90;;;;;;5052706;28;20160;-80
2023/11/16 01:24:10;;;;;;;23.88;2.33;;;8.40;99.90;;;;;;5052841;28;20186;-80
2023/11/16 01:26:36;;;;;;;27.13;2.55;;;8.40;99.90;;;;;;5034771;28;20224;-80
2023/11/16 01:29:06;;;;;;;28.13;3.08;;;8.40;99.90;;;;;;5036158;28;20173;-80
2023/11/16 01:31:32;;;;;;;28.48;3.13;;;8.40;99.90;;;;;;5053421;28;20146;-80
2023/11/16 01:33:57;;;;;;;24.77;2.43;;;8.40;99.90;;;;;;5053560;28;20245;-80
2023/11/16 01:36:26;;;;;;;28.80;2.90;;;8.40;99.90;;;;;;5052220;28;20170;-80
2023/11/16 01:38:52;;;;;;;29.02;2.55;;;8.40;99.90;;;;;;5053078;28;20174;-80
2023/11/16 01:41:18;;;;;;;26.40;2.78;;;8.40;99.90;;;;;;5053478;28;20170;-80
2023/11/16 01:43:46;;;;;;;27.40;3.10;;;8.50;99.90;;;;;;5050786;28;20228;-79
2023/11/16 01:46:12;;;;;;;32.03;2.65;;;8.50;99.90;;;;;;5033479;28;20470;-80
2023/11/16 01:48:49;;;;;;;28.15;2.63;;;8.60;99.90;;;;;;5050393;28;20173;-80
2023/11/16 01:51:17;;;;;;;25.58;3.15;;;8.50;99.90;;;;;;5051383;28;20168;-80
2023/11/16 01:53:54;;;;;;;25.67;2.33;;;8.60;99.90;;;;;;5050820;28;20197;-80
2023/11/16 01:56:20;;;;;;;27.23;2.60;;;8.60;99.90;;;;;;5050884;28;20157;-80
2023/11/16 01:58:51;;;;;;;25.05;2.40;;;8.60;99.90;;;;;;5051365;28;20174;-80
2023/11/16 02:01:18;;;;;;;31.25;2.97;;;8.60;99.90;;;;;;5050134;28;20177;-80
2023/11/16 02:03:46;;;;;;;24.60;2.58;;;8.60;99.90;;;;;;5032930;28;20249;-80
2023/11/16 02:06:12;;;;;;;24.55;2.30;;;8.60;99.90;;;;;;5050335;28;20192;-80
2023/11/16 02:08:41;;;;;;;27.23;3.08;;;8.60;99.90;;;;;;5050218;28;20166;-80
2023/11/16 02:11:07;;;;;;;28.10;2.50;;;8.50;99.90;;;;;;5049988;28;20162;-80
2023/11/16 02:13:33;;;;;;;28.63;2.73;;;8.60;99.90;;;;;;5051912;28;20181;-80
2023/11/16 02:15:59;;;;;;;26.17;2.70;;;8.60;99.90;;;;;;5052457;28;20162;-80
2023/11/16 02:18:25;;;;;;;24.40;2.35;;;8.60;99.90;;;;;;5052612;28;20170;-80
2023/11/16 02:20:55;;;;;;;33.60;3.30;;;8.60;99.90;;;;;;5052256;28;20170;-80
2023/11/16 02:23:21;;;;;;;30.10;2.97;;;8.60;99.90;;;;;;5053060;28;20281;-80
2023/11/16 02:25:51;;;;;;;28.58;2.35;;;8.70;99.90;;;;;;5051888;28;20182;-80
2023/11/16 02:28:21;;;;;;;24.02;2.53;;;8.70;99.90;;;;;;5034048;28;20170;-80
2023/11/16 02:30:47;;;;;;;24.35;2.17;;;8.70;99.90;;;;;;5052523;28;20173;-80
2023/11/16 02:33:13;;;;;;;30.92;2.28;;;8.70;99.90;;;;;;5052081;28;20182;-80
2023/11/16 02:35:39;;;;;;;30.07;2.40;;;8.70;99.90;;;;;;5051090;28;20232;-80
2023/11/16 02:38:08;;;;;;;25.40;2.78;;;8.80;99.90;;;;;;5050846;28;20479;-80
2023/11/16 02:40:34;;;;;;;26.90;2.33;;;8.80;99.90;;;;;;5052441;28;20173;-80
2023/11/16 02:43:02;;;;;;;27.63;2.50;;;8.80;99.90;;;;;;5052308;28;20146;-80
2023/11/16 02:45:28;;;;;;;25.90;2.50;;;8.70;99.90;;;;;;5050802;28;20166;-80
2023/11/16 02:47:54;;;;;;;27.10;2.80;;;8.70;99.90;;;;;;5051759;28;20169;-80
2023/11/16 02:50:22;;;;;;;24.73;2.27;;;8.70;99.90;;;;;;5051298;28;20429;-80
2023/11/16 02:52:50;;;;;;;25.17;2.63;;;8.80;99.90;;;;;;5051145;28;20408;-80
2023/11/16 02:55:25;;;;;;;30.63;2.67;;;8.80;99.90;;;;;;5034419;28;20177;-80
2023/11/16 02:57:57;;;;;;;23.92;2.20;;;8.80;99.90;;;;;;5052410;28;20209;-80
2023/11/16 03:00:24;;;;;;;26.13;2.10;;;8.90;99.90;;;;;;5051433;28;20631;-80
2023/11/16 03:02:50;;;;;;;24.70;2.30;;;8.90;99.90;;;;;;5051388;28;20161;-80
2023/11/16 03:05:18;;;;;;;35.28;2.75;;;8.90;99.90;;;;;;5051588;28;20218;-80
2023/11/16 03:07:44;;;;;;;26.23;2.90;;;8.90;99.90;;;;;;5034214;28;20166;-80
2023/11/16 03:10:11;;;;;;;23.50;2.93;;;8.90;99.90;;;;;;5052085;28;20166;-80
2023/11/16 03:12:37;;;;;;;22.63;2.42;;;8.90;99.90;;;;;;5052012;28;20166;-80
2023/11/16 03:15:07;;;;;;;28.10;2.50;;;8.80;99.90;;;;;;5051171;28;20235;-80
2023/11/16 03:17:34;;;;;;;24.38;2.85;;;8.90;99.90;;;;;;5033947;28;20177;-80
2023/11/16 03:20:00;;;;;;;24.15;2.22;;;8.90;99.90;;;;;;5052000;28;20181;-80
2023/11/16 03:22:29;;;;;;;25.40;2.30;;;9.00;99.90;;;;;;5051320;28;20162;-80
2023/11/16 03:24:57;;;;;;;25.20;2.20;;;9.00;99.90;;;;;;5051220;28;20194;-80
2023/11/16 03:27:23;;;;;;;23.40;1.95;;;8.90;99.90;;;;;;5050449;28;20193;-80
2023/11/16 03:29:49;;;;;;;29.97;3.00;;;9.00;99.90;;;;;;5051413;28;20671;-80
2023/11/16 03:32:15;;;;;;;26.23;3.03;;;9.00;99.90;;;;;;5034535;28;20177;-80
2023/11/16 03:34:41;;;;;;;23.77;1.90;;;9.00;99.90;;;;;;5052091;28;20181;-80
2023/11/16 03:37:07;;;;;;;24.97;2.33;;;9.10;99.90;;;;;;5051199;28;20201;-80
2023/11/16 03:39:33;;;;;;;23.38;2.60;;;9.00;99.90;;;;;;5051193;28;20412;-80
2023/11/16 03:41:59;;;;;;;26.77;2.60;;;9.00;99.90;;;;;;5051149;28;20197;-80
2023/11/16 03:44:26;;;;;;;23.60;2.73;;;9.00;99.90;;;;;;5051380;28;20182;-80
2023/11/16 03:46:53;;;;;;;24.00;1.90;;;8.90;99.90;;;;;;5051317;28;20444;-80
2023/11/16 03:49:19;;;;;;;30.65;2.75;;;9.00;99.90;;;;;;5050894;28;20200;-80
2023/11/16 03:51:45;;;;;;;21.88;1.90;;;9.00;99.90;;;;;;5052293;28;20197;-80
2023/11/16 03:54:11;;;;;;;23.65;2.05;;;9.00;99.90;;;;;;5051226;28;20210;-80
2023/11/16 03:56:37;;;;;;;24.30;2.20;;;9.00;99.90;;;;;;5050957;28;20162;-80
2023/11/16 03:59:03;;;;;;;26.53;2.80;;;9.00;99.90;;;;;;5033359;28;20169;-80
2023/11/16 04:01:34;;;;;;;23.40;2.43;;;9.00;99.90;;;;;;5051235;28;20177;-80
2023/11/16 04:04:00;;;;;;;23.08;2.45;;;9.00;99.90;;;;;;5051861;28;20423;-80
2023/11/16 04:06:26;;;;;;;28.65;2.35;;;9.00;99.90;;;;;;5051168;28;20205;-80
2023/11/16 04:08:52;;;;;;;27.02;3.47;;;8.90;99.90;;;;;;5051915;28;20221;-80
2023/11/16 04:11:19;;;;;;;23.45;2.60;;;8.80;99.90;;;;;;5051656;28;20165;-80
2023/11/16 04:13:46;;;;;;;23.63;2.20;;;8.80;99.90;;;;;;5034115;28;20205;-80
2023/11/16 04:16:23;;;;;;;31.27;3.22;;;8.70;99.90;;;;;;5051412;28;20166;-80
2023/11/16 04:18:50;;;;;;;23.73;2.38;;;8.60;99.90;;;;;;5051134;28;20180;-80
2023/11/16 04:21:20;;;;;;;30.85;2.63;;;8.50;99.90;;;;;;5051250;28;20166;-80
2023/11/16 04:23:52;;;;;;;27.15;3.20;;;8.50;99.90;;;;;;5050793;28;20193;-80
2023/11/16 04:26:20;;;;;;;24.45;2.60;;;8.40;99.90;;;;;;5050864;28;20182;-80
2023/11/16 04:28:47;;;;;;;28.20;2.92;;;8.30;99.90;;;;;;5050900;28;20174;-80
2023/11/16 04:31:13;;;;;;;30.50;3.63;;;8.30;99.90;;;;;;5051185;28;20165;-80
2023/11/16 04:33:40;;;;;;;25.27;2.77;;;8.20;99.90;;;;;;5050545;28;20249;-80
2023/11/16 04:36:08;;;;;;;24.75;2.53;;;8.20;99.90;;;;;;5050158;28;20455;-80
2023/11/16 04:38:34;;;;;;;25.08;2.83;;;8.20;99.90;;;;;;5032721;28;20176;-80
2023/11/16 04:41:02;;;;;;;32.65;2.80;;;8.20;99.90;;;;;;5050236;28;20230;-80
2023/11/16 04:43:30;;;;;;;32.13;3.13;;;8.10;99.90;;;;;;5561816;22;20209;-79
2023/11/16 04:45:56;;;;;;;25.90;2.40;;;8.00;99.90;;;;;;5556497;22;21353;-80
2023/11/16 04:48:22;;;;;;;28.23;3.30;;;8.10;99.90;;;;;;5050783;28;20173;-80
2023/11/16 04:50:48;;;;;;;23.75;2.60;;;8.00;99.90;;;;;;5050708;28;20174;-80
2023/11/16 04:53:14;;;;;;;26.83;2.58;;;8.00;99.90;;;;;;5050723;28;20181;-80
2023/11/16 04:55:40;;;;;;;26.27;3.60;;;7.90;99.90;;;;;;5049959;28;20166;-80
2023/11/16 04:58:06;;;;;;;24.60;2.43;;;7.90;99.90;;;;;;5050697;28;20162;-80
2023/11/16 05:00:32;;;;;;;34.05;3.13;;;7.80;99.90;;;;;;5050430;28;20157;-80
2023/11/16 05:02:58;;;;;;;30.35;3.05;;;7.80;99.90;;;;;;5032445;28;20161;-80
2023/11/16 05:05:24;;;;;;;25.17;2.70;;;7.70;99.90;;;;;;5050320;28;20242;-80
2023/11/16 05:07:49;;;;;;;27.47;3.03;;;7.80;99.90;;;;;;5051123;28;20166;-80
2023/11/16 05:10:16;;;;;;;26.80;2.53;;;7.90;99.90;;;;;;5032289;28;20240;-80
2023/11/16 05:12:45;;;;;;;25.10;3.03;;;8.00;99.90;;;;;;5050163;28;20189;-80
2023/11/16 05:15:11;;;;;;;29.88;2.85;;;8.00;99.90;;;;;;5049843;28;20177;-80
2023/11/16 05:17:37;;;;;;;26.57;3.23;;;8.00;99.90;;;;;;5033073;28;20250;-80
2023/11/16 05:20:03;;;;;;;25.60;2.43;;;8.00;99.90;;;;;;5049656;28;20245;-80
2023/11/16 05:22:29;;;;;;;33.95;2.97;;;8.10;99.90;;;;;;5050153;28;20177;-80
2023/11/16 05:24:55;;;;;;;26.43;2.50;;;8.00;99.90;;;;;;5032834;28;20189;-80
2023/11/16 05:27:20;;;;;;;25.37;2.30;;;8.00;99.90;;;;;;5049593;28;20190;-80
2023/11/16 05:29:46;;;;;;;28.47;3.20;;;8.00;99.90;;;;;;5050776;28;20236;-80
2023/11/16 05:32:12;;;;;;;25.77;2.90;;;8.10;99.90;;;;;;5050205;28;20158;-80
2023/11/16 05:34:37;;;;;;;29.40;2.80;;;8.20;99.90;;;;;;5049797;28;20211;-80
2023/11/16 05:37:03;;;;;;;27.97;3.23;;;8.20;99.90;;;;;;5050631;28;20220;-80
2023/11/16 05:39:30;;;;;;;28.15;2.47;;;8.30;99.90;;;;;;5049926;28;20170;-80
2023/11/16 05:41:56;;;;;;;26.15;3.00;;;8.30;99.90;;;;;;5049719;28;20184;-80
2023/11/16 05:44:22;;;;;;;30.67;3.00;;;8.30;99.90;;;;;;5049505;28;20190;-80
2023/11/16 05:46:48;;;;;;;24.08;2.55;;;8.40;99.90;;;;;;5034415;28;20212;-80
2023/11/16 05:49:15;;;;;;;24.33;2.80;;;8.40;99.90;;;;;;5053785;28;20182;-80
2023/11/16 05:51:41;;;;;;;28.35;2.75;;;8.30;99.90;;;;;;5053475;28;20154;-80
2023/11/16 05:54:07;;;;;;;28.35;2.70;;;8.30;99.90;;;;;;5053719;28;20178;-80
2023/11/16 05:56:42;;;;;;;23.30;2.80;;;8.30;99.90;;;;;;5053497;28;20184;-80
2023/11/16 05:59:10;;;;;;;26.05;3.60;;;8.40;99.90;;;;;;5052660;28;20181;-80
2023/11/16 06:01:37;;;;;;;28.23;3.50;;;8.40;99.90;;;;;;5052193;28;20177;-80
2023/11/16 06:04:07;;;;;;;34.63;3.00;;;8.50;99.90;;;;;;5053207;28;20220;-80
2023/11/16 06:06:34;;;;;;;26.85;2.70;;;8.50;99.90;;;;;;5053894;28;20686;-80
2023/11/16 06:09:00;;;;;;;25.25;2.75;;;8.50;99.90;;;;;;5053279;28;20166;-80
2023/11/16 06:11:25;;;;;;;22.92;2.63;;;8.50;99.90;;;;;;5053049;28;20169;-80
2023/11/16 06:13:54;;;;;;;27.00;3.27;;;8.40;99.90;;;;;;5052830;28;20190;-80
2023/11/16 06:16:21;;;;;;;27.17;3.33;;;8.40;99.90;;;;;;5051832;28;20177;-80
2023/11/16 06:18:47;;;;;;;27.98;3.20;;;8.50;99.90;;;;;;5053206;28;20166;-80
2023/11/16 06:21:13;;;;;;;26.52;3.22;;;8.40;99.90;;;;;;5052675;28;20631;-80
2023/11/16 06:23:39;;;;;;;23.70;2.60;;;8.40;99.90;;;;;;5051012;28;20190;-80
2023/11/16 06:26:08;;;;;;;23.57;2.70;;;8.40;99.90;;;;;;5051443;28;20189;-79
2023/11/16 06:28:35;;;;;;;23.70;2.22;;;8.40;99.90;;;;;;5051111;28;20165;-80
2023/11/16 06:31:01;;;;;;;31.00;3.25;;;8.30;99.90;;;;;;5051266;28;20158;-79
2023/11/16 06:33:33;;;;;;;21.98;2.58;;;8.30;99.90;;;;;;5050718;28;20181;-80
2023/11/16 06:35:59;;;;;;;26.38;2.92;;;8.20;99.90;;;;;;5034011;28;20177;-80
2023/11/16 06:38:29;;;;;;;25.95;3.22;;;8.20;99.90;;;;;;5033384;28;20206;-79
2023/11/16 06:40:59;;;;;;;26.45;2.67;;;8.10;99.90;;;;;;5032513;28;20174;-79
2023/11/16 06:43:26;;;;;;;25.40;2.40;;;8.10;99.90;;;;;;5049883;28;20194;-80
2023/11/16 06:45:52;;;;;;;27.83;3.40;;;8.10;99.90;;;;;;5049568;28;20671;-79
2023/11/16 06:48:18;;;;;;;23.97;2.73;;;8.00;99.90;;;;;;5049665;28;20155;-79
2023/11/16 06:50:45;;;;;;;32.50;5.20;;;8.00;99.90;;;;;;5050061;28;20840;-79
2023/11/16 06:53:11;;;;;;;24.40;2.63;;;8.10;99.90;;;;;;5049743;28;20201;-79
2023/11/16 06:55:39;;;;;;;23.40;2.30;;;8.00;99.90;;;;;;5049515;28;20162;-79
2023/11/16 06:58:07;;;;;;;27.13;3.08;;;8.00;99.90;;;;;;5049093;28;20591;-79
2023/11/16 07:00:36;;;;;;;25.95;2.90;;;7.90;99.90;;;;;;5031925;28;20227;-79
2023/11/16 07:03:02;;;;;;;25.70;2.70;;;7.90;99.90;;;;;;5049880;28;20162;-79
2023/11/16 07:05:28;;;;;;;27.73;3.35;;;7.80;99.90;;;;;;5049695;28;20174;-79
2023/11/16 07:07:56;;;;;;;27.10;3.67;;;7.80;99.90;;;;;;5031138;28;20170;-79
2023/11/16 07:10:22;;;;;;;26.27;3.42;;;7.80;99.90;;;;;;5031317;28;20201;-79
2023/11/16 07:12:47;;;;;;;26.60;3.65;;;7.80;99.90;;;;;;5048876;28;20246;-79
2023/11/16 07:15:14;;;;;;;28.50;4.07;;;7.90;99.90;;;;;;5049193;28;20162;-79
2023/11/16 07:17:40;;;;;;;26.48;3.85;;;8.00;99.90;;;;;;5049327;28;20249;-79
2023/11/16 07:20:11;;;;;;;28.08;4.30;;;7.90;99.90;;;;;;5049753;28;20170;-79
2023/11/16 07:22:37;;;;;;;27.55;3.85;;;8.00;99.90;;;;;;5049635;28;20219;-79
2023/11/16 07:25:07;;;;;;;37.20;5.00;;;7.90;99.90;;;;;;5031653;28;20194;-79
2023/11/16 07:27:33;;;;;;;27.75;4.60;;;7.80;99.90;;;;;;5048799;28;20182;-79
2023/11/16 07:29:59;;;;;;;29.70;4.55;;;7.90;99.90;;;;;;5048787;28;20165;-79
2023/11/16 07:32:25;;;;;;;30.30;4.67;;;7.90;99.90;;;;;;5048679;28;20193;-79
2023/11/16 07:34:51;;;;;;;27.97;3.10;;;7.90;99.90;;;;;;5048930;28;20182;-79
2023/11/16 07:37:16;;;;;;;28.67;4.17;;;7.90;99.90;;;;;;5031546;28;20170;-79
2023/11/16 07:39:42;;;;;;;28.00;3.70;;;7.90;99.90;;;;;;5048878;28;20567;-79
2023/11/16 07:42:08;;;;;;;31.80;4.27;;;7.80;99.90;;;;;;5031212;28;20170;-79
2023/11/16 07:44:34;;;;;;;28.13;4.93;;;7.70;99.90;;;;;;5048632;28;20730;-79
2023/11/16 07:47:00;;;;;;;31.70;3.67;;;7.70;99.90;;;;;;5048743;28;20463;-79
2023/11/16 07:49:27;;;;;;;29.02;3.58;;;7.70;99.90;;;;;;5049035;28;20576;-79
2023/11/16 07:51:54;;;;;;;27.80;4.00;;;7.70;99.90;;;;;;5048614;28;20177;-79
2023/11/16 07:54:21;;;;;;;27.33;3.67;;;7.80;99.90;;;;;;5048504;28;20275;-79
2023/11/16 07:56:52;;;;;;;28.77;3.83;;;7.80;99.90;;;;;;5031783;28;20173;-79
2023/11/16 07:59:18;;;;;;;27.92;3.92;;;7.80;99.90;;;;;;5049396;28;20152;-79
2023/11/16 08:01:56;;;;;;;26.58;3.30;;;7.80;99.90;;;;;;5048974;28;20173;-79
2023/11/16 08:04:25;;;;;;;25.83;3.50;;;7.80;99.90;;;;;;5030357;28;20194;-79
2023/11/16 08:06:53;;;;;;;26.75;3.78;;;7.80;99.90;;;;;;5048607;28;20518;-79
2023/11/16 08:09:21;;;;;;;25.52;3.38;;;7.80;99.90;;;;;;5047257;28;20189;-79
2023/11/16 08:11:53;;;;;;;30.30;2.85;;;7.80;99.90;;;;;;5047848;28;20694;-79
2023/11/16 08:14:25;;;;;;;33.30;4.00;;;7.90;99.90;;;;;;5048303;28;20193;-79
2023/11/16 08:16:56;;;;;;;30.15;4.03;;;7.90;99.90;;;;;;5048237;28;20161;-79
2023/11/16 08:19:22;;;;;;;25.80;3.28;;;7.90;99.90;;;;;;5047642;28;20222;-79
2023/11/16 08:21:48;;;;;;;28.65;3.33;;;7.80;99.90;;;;;;5031056;28;20169;-79
2023/11/16 08:24:15;;;;;;;24.65;3.25;;;7.90;99.90;;;;;;5048077;28;20248;-79
2023/11/16 08:26:42;;;;;;;25.77;3.17;;;7.90;99.90;;;;;;5047201;28;20182;-79
2023/11/16 08:29:08;;;;;;;29.50;3.03;;;7.90;99.90;;;;;;5047499;28;20247;-79
2023/11/16 08:31:34;;;;;;;26.67;2.83;;;7.90;99.90;;;;;;5047913;28;20190;-79
2023/11/16 08:34:00;;;;;;;29.67;2.75;;;7.90;99.90;;;;;;5047560;28;20209;-79
2023/11/16 08:36:26;;;;;;;24.53;3.20;;;7.90;99.90;;;;;;5048970;28;20170;-79
2023/11/16 08:38:52;;;;;;;25.00;2.75;;;8.00;99.90;;;;;;5047865;28;20250;-80
2023/11/16 08:41:22;;;;;;;28.92;3.33;;;8.00;99.90;;;;;;5029678;28;20165;-80
2023/11/16 08:43:52;;;;;;;28.55;3.08;;;8.00;99.90;;;;;;5030387;28;20213;-79
2023/11/16 08:46:20;;;;;;;27.00;3.33;;;8.00;99.90;;;;;;5048044;28;20262;-79
2023/11/16 08:48:50;;;;;;;26.00;3.45;;;8.00;99.90;;;;;;5047451;28;20170;-79
2023/11/16 08:51:16;;;;;;;29.02;4.38;;;8.10;99.90;;;;;;5047844;28;20166;-79
2023/11/16 08:53:43;;;;;;;28.80;4.20;;;8.10;99.90;;;;;;5047408;28;20208;-79
2023/11/16 08:56:09;;;;;;;26.13;3.45;;;8.10;99.90;;;;;;5046626;28;20169;-80
2023/11/16 08:58:44;;;;;;;27.45;3.47;;;8.20;99.90;;;;;;5029972;28;20173;-79
2023/11/16 09:01:12;;;;;;;28.55;3.40;;;8.40;99.90;;;;;;5047139;28;20188;-79
2023/11/16 09:03:45;;;;;;;24.85;3.03;;;8.50;99.90;;;;;;5048348;28;20209;-79
2023/11/16 09:06:15;;;;;;;25.17;3.25;;;8.60;99.90;;;;;;5048200;28;20245;-79
2023/11/16 09:08:48;;;;;;;25.15;2.95;;;8.80;99.90;;;;;;5048090;28;20154;-79
2023/11/16 09:11:19;;;;;;;23.88;2.40;;;8.90;99.90;;;;;;5047968;28;20639;-79
2023/11/16 09:13:45;;;;;;;25.38;3.00;;;9.00;99.90;;;;;;5047337;28;20213;-79
2023/11/16 09:16:11;;;;;;;23.75;2.70;;;9.10;99.90;;;;;;5029555;28;20173;-79
2023/11/16 09:18:42;;;;;;;24.00;3.00;;;9.20;99.90;;;;;;5048820;28;20177;-79
2023/11/16 09:21:09;;;;;;;25.70;3.22;;;9.20;99.90;;;;;;5048862;28;20667;-80
2023/11/16 09:23:36;;;;;;;26.90;3.47;;;9.30;99.90;;;;;;5051551;28;20205;-79
2023/11/16 09:26:02;;;;;;;25.42;3.40;;;9.30;99.90;;;;;;5033953;28;20189;-79
2023/11/16 09:28:35;;;;;;;24.67;2.08;;;9.40;99.90;;;;;;5034325;28;20188;-79
2023/11/16 09:31:01;;;;;;;25.52;2.30;;;9.50;99.90;;;;;;5051762;28;20162;-79
2023/11/16 09:33:27;;;;;;;21.98;1.80;;;9.60;99.90;;;;;;5051584;28;20178;-79
2023/11/16 09:35:54;;;;;;;20.40;2.05;;;9.70;99.90;;;;;;5033255;28;20197;-79
2023/11/16 09:38:20;;;;;;;26.38;2.50;;;9.70;99.90;;;;;;5033480;28;20201;-79
2023/11/16 09:40:48;;;;;;;22.13;2.40;;;9.80;99.90;;;;;;5050968;28;20177;-79
2023/11/16 09:43:16;;;;;;;25.17;2.28;;;9.80;99.90;;;;;;5050683;28;20507;-79
2023/11/16 09:45:50;;;;;;;31.15;3.05;;;9.90;99.90;;;;;;5050646;28;20190;-79
2023/11/16 09:48:20;;;;;;;23.48;2.60;;;9.80;99.90;;;;;;5032494;28;20174;-79
2023/11/16 09:50:48;;;;;;;22.02;2.15;;;9.60;99.90;;;;;;5032282;28;20169;-79
2023/11/16 09:53:18;;;;;;;21.75;2.58;;;9.60;99.90;;;;;;5050892;28;20182;-79
2023/11/16 09:55:49;;;;;;;25.05;2.65;;;9.60;99.90;;;;;;5049541;28;20186;-79
2023/11/16 09:58:23;;;;;;;22.95;2.53;;;9.50;99.90;;;;;;5050480;28;20676;-79
2023/11/16 10:00:57;;;;;;;22.98;2.92;;;9.50;99.90;;;;;;5050019;28;20174;-79
2023/11/16 10:03:31;;;;;;;24.65;2.72;;;9.60;99.90;;;;;;5032589;28;20205;-80
2023/11/16 10:05:58;;;;;;;24.25;2.90;;;9.50;99.90;;;;;;5049553;28;20234;-79
2023/11/16 10:08:27;;;;;;;27.10;3.03;;;9.40;99.90;;;;;;5031977;28;20639;-79
2023/11/16 10:10:55;;;;;;;24.85;3.55;;;9.40;99.90;;;;;;5050406;28;20162;-79
2023/11/16 10:13:24;;;;;;;25.98;3.85;;;9.40;99.90;;;;;;5049301;28;20189;-79
2023/11/16 10:15:53;;;;;;;32.65;4.60;;;9.40;99.90;;;;;;5050004;28;20166;-79
2023/11/16 10:18:24;;;;;;;26.15;3.63;;;9.40;99.90;;;;;;5050426;28;20181;-79
2023/11/16 10:20:50;;;;;;;24.45;2.95;;;9.40;99.90;;;;;;5049561;28;20209;-79
2023/11/16 10:23:18;;;;;;;29.13;3.27;;;9.30;99.90;;;;;;5051351;28;20536;-80
2023/11/16 10:25:48;;;;;;;28.95;3.10;;;9.40;99.90;;;;;;5033050;28;20448;-79
2023/11/16 10:28:17;;;;;;;31.98;3.70;;;9.30;99.90;;;;;;5050686;28;20165;-79
2023/11/16 10:30:57;;;;;;;26.20;3.03;;;9.30;99.90;;;;;;5033070;28;20173;-79
2023/11/16 10:33:24;;;;;;;24.52;2.80;;;9.30;99.90;;;;;;5032902;28;20212;-79
2023/11/16 10:36:03;;;;;;;23.30;2.88;;;9.20;99.90;;;;;;5050721;28;20177;-79
2023/11/16 10:38:29;;;;;;;25.55;2.72;;;9.10;99.90;;;;;;5050496;28;20154;-80
2023/11/16 10:40:56;;;;;;;25.27;2.78;;;9.20;99.90;;;;;;5050333;28;20190;-79
2023/11/16 10:43:27;;;;;;;24.27;3.22;;;9.30;99.90;;;;;;5032038;28;20713;-79
2023/11/16 10:45:54;;;;;;;27.17;3.70;;;9.30;99.90;;;;;;5049959;28;20201;-79
2023/11/16 10:48:21;;;;;;;32.40;4.03;;;9.40;99.90;;;;;;5050228;28;20162;-79
2023/11/16 10:50:48;;;;;;;25.33;3.00;;;9.40;99.90;;;;;;5050931;28;20162;-79
2023/11/16 10:53:23;;;;;;;26.00;3.63;;;9.50;99.90;;;;;;5050300;28;20189;-79
2023/11/16 10:55:55;;;;;;;24.08;3.28;;;9.50;99.90;;;;;;5032391;28;20277;-80
2023/11/16 10:58:29;;;;;;;24.65;3.20;;;9.40;99.90;;;;;;5050275;28;20195;-79
2023/11/16 11:01:07;;;;;;;24.88;3.25;;;9.30;99.90;;;;;;5032531;28;20166;-79
2023/11/16 11:03:44;;;;;;;27.17;3.40;;;9.30;99.90;;;;;;5050641;28;20189;-79
2023/11/16 11:06:19;;;;;;;32.10;3.55;;;9.30;99.90;;;;;;5032537;28;20209;-80
2023/11/16 11:08:45;;;;;;;26.50;3.22;;;9.20;99.90;;;;;;5031668;28;20154;-79
2023/11/16 11:11:11;;;;;;;25.30;3.35;;;9.30;99.90;;;;;;5031866;28;20604;-79
2023/11/16 11:13:41;;;;;;;28.42;3.65;;;9.30;99.90;;;;;;5049495;28;20667;-79
2023/11/16 11:16:08;;;;;;;25.45;3.10;;;9.30;99.90;;;;;;5032388;28;20167;-79
2023/11/16 11:18:45;;;;;;;28.38;2.92;;;9.20;99.90;;;;;;5032371;28;20173;-80
2023/11/16 11:21:15;;;;;;;27.60;2.83;;;9.20;99.90;;;;;;5049165;28;20166;-79
2023/11/16 11:23:41;;;;;;;24.63;2.65;;;9.20;99.90;;;;;;5049463;28;20181;-79
2023/11/16 11:26:08;;;;;;;25.10;2.95;;;9.20;99.90;;;;;;5031844;28;20185;-80
2023/11/16 11:28:41;;;;;;;24.40;2.97;;;9.10;99.90;;;;;;5049203;28;20205;-79
2023/11/16 11:32:03;;;;;;;27.42;3.83;;;9.10;99.90;;;;;;5050195;28;20272;-79
2023/11/16 11:34:34;;;;;;;25.00;2.67;;;9.10;99.90;;;;;;5027591;23;20233;-79
2023/11/16 11:37:01;;;;;;;26.60;3.50;;;9.20;99.90;;;;;;5015379;28;20251;-79
2023/11/16 11:39:46;;;;;;;32.17;4.25;;;9.40;99.90;;;;;;5049407;28;20162;-79
2023/11/16 11:42:12;;;;;;;31.95;4.13;;;9.50;99.90;;;;;;5049368;28;20162;-80
2023/11/16 11:44:53;;;;;;;26.48;3.70;;;9.40;99.90;;;;;;5029986;28;20189;-80
2023/11/16 11:47:24;;;;;;;28.73;3.53;;;9.30;99.90;;;;;;5048954;28;20190;-80
2023/11/16 11:49:51;;;;;;;25.92;3.88;;;9.30;99.90;;;;;;5048912;28;20189;-79
2023/11/16 11:52:17;;;;;;;31.23;3.72;;;9.30;99.90;;;;;;5049513;28;20166;-80
2023/11/16 11:54:45;;;;;;;27.80;4.15;;;9.30;99.90;;;;;;5049987;28;20182;-80
2023/11/16 11:57:11;;;;;;;28.80;3.13;;;9.20;99.90;;;;;;5031848;28;20185;-80
2023/11/16 11:59:37;;;;;;;33.13;3.83;;;9.30;99.90;;;;;;5049419;28;20199;-80
2023/11/16 12:02:10;;;;;;;26.80;4.60;;;9.40;99.90;;;;;;5049447;28;20200;-80
2023/11/16 12:04:37;;;;;;;27.33;4.25;;;9.30;99.90;;;;;;5031365;28;20221;-80
2023/11/16 12:07:07;;;;;;;25.05;3.40;;;9.30;99.90;;;;;;5048526;28;20663;-79
2023/11/16 12:09:37;;;;;;;27.13;4.18;;;9.20;99.90;;;;;;5048430;28;20170;-79
2023/11/16 12:12:04;;;;;;;26.40;4.40;;;9.20;99.90;;;;;;5048390;28;20513;-80
2023/11/16 12:14:38;;;;;;;26.70;3.63;;;9.10;99.90;;;;;;5048550;28;20254;-79
2023/11/16 12:17:04;;;;;;;27.92;4.28;;;9.10;99.90;;;;;;5048718;28;20358;-79
2023/11/16 12:19:37;;;;;;;29.73;3.22;;;9.20;99.90;;;;;;5048448;28;20162;-79
2023/11/16 12:27:01;;;;;;;34.92;3.53;;;9.20;99.90;;;;;;5132830;22;20252;-79
2023/11/16 12:29:26;;;;;;;25.75;3.17;;;9.20;99.90;;;;;;5048284;28;20162;-80
2023/11/16 12:31:55;;;;;;;27.20;3.77;;;9.20;99.90;;;;;;5048697;28;20166;-80
2023/11/16 12:34:24;;;;;;;26.08;3.03;;;9.20;99.90;;;;;;5048414;28;20182;-80
2023/11/16 12:36:54;;;;;;;30.48;3.70;;;9.10;99.90;;;;;;5049114;28;20166;-79
2023/11/16 12:39:25;;;;;;;24.65;3.40;;;9.00;99.90;;;;;;5048688;28;20158;-80
2023/11/16 12:41:52;;;;;;;26.35;4.00;;;9.00;99.90;;;;;;5047893;28;20521;-79
2023/11/16 12:44:18;;;;;;;26.23;2.83;;;9.00;99.90;;;;;;5048196;28;20182;-79
2023/11/16 12:46:45;;;;;;;27.30;4.60;;;9.00;99.90;;;;;;5029413;28;20204;-80
2023/11/16 12:49:11;;;;;;;25.25;3.15;;;9.00;99.90;;;;;;5048412;28;20173;-79
2023/11/16 12:51:37;;;;;;;29.30;3.80;;;8.90;99.90;;;;;;5047506;28;20165;-79
2023/11/16 12:54:03;;;;;;;28.70;3.43;;;9.00;99.90;;;;;;5030382;28;20181;-79
2023/11/16 12:56:29;;;;;;;26.27;3.50;;;8.90;99.90;;;;;;5030234;28;20170;-79